sensor_id;sensor_type;location;lat;lon;timestamp;P1;durP1;ratioP1;P2;durP2;ratioP2
45254;SDS011;30989;52.078;21.014;2023-04-06T00:00:18;13.60;;;3.35;;
45254;SDS011;30989;52.078;21.014;2023-04-06T00:02:44;6.75;;;3.20;;
45254;SDS011;30989;52.078;21.014;2023-04-06T00:05:09;9.85;;;3.45;;
45254;SDS011;30989;52.078;21.014;2023-04-06T00:07:35;8.13;;;2.45;;
45254;SDS011;30989;52.078;21.014;2023-04-06T00:10:01;11.88;;;3.25;;
45254;SDS011;30989;52.078;21.014;2023-04-06T00:12:27;8.45;;;2.83;;
45254;SDS011;30989;52.078;21.014;2023-04-06T00:14:52;4.82;;;2.38;;
45254;SDS011;30989;52.078;21.014;2023-04-06T00:17:17;8.35;;;3.45;;
45254;SDS011;30989;52.078;21.014;2023-04-06T00:19:43;8.70;;;3.08;;
45254;SDS011;30989;52.078;21.014;2023-04-06T00:22:08;7.55;;;2.78;;
45254;SDS011;30989;52.078;21.014;2023-04-06T00:24:34;8.43;;;2.85;;
45254;SDS011;30989;52.078;21.014;2023-04-06T00:27:00;11.57;;;3.47;;
45254;SDS011;30989;52.078;21.014;2023-04-06T00:29:26;10.23;;;4.15;;
45254;SDS011;30989;52.078;21.014;2023-04-06T00:31:51;7.95;;;2.67;;
45254;SDS011;30989;52.078;21.014;2023-04-06T00:34:17;5.22;;;2.72;;
45254;SDS011;30989;52.078;21.014;2023-04-06T00:36:42;4.72;;;2.65;;
45254;SDS011;30989;52.078;21.014;2023-04-06T00:39:08;7.72;;;2.70;;
45254;SDS011;30989;52.078;21.014;2023-04-06T00:41:33;8.73;;;2.55;;
45254;SDS011;30989;52.078;21.014;2023-04-06T00:43:59;7.80;;;2.83;;
45254;SDS011;30989;52.078;21.014;2023-04-06T00:46:24;5.90;;;2.65;;
45254;SDS011;30989;52.078;21.014;2023-04-06T00:48:50;7.60;;;2.65;;
45254;SDS011;30989;52.078;21.014;2023-04-06T00:51:16;7.78;;;3.20;;
45254;SDS011;30989;52.078;21.014;2023-04-06T00:53:41;6.68;;;3.15;;
45254;SDS011;30989;52.078;21.014;2023-04-06T00:56:09;8.52;;;3.05;;
45254;SDS011;30989;52.078;21.014;2023-04-06T00:58:46;5.97;;;2.65;;
45254;SDS011;30989;52.078;21.014;2023-04-06T01:01:12;9.75;;;4.38;;
45254;SDS011;30989;52.078;21.014;2023-04-06T01:03:37;10.02;;;3.50;;
45254;SDS011;30989;52.078;21.014;2023-04-06T01:06:03;9.90;;;3.75;;
45254;SDS011;30989;52.078;21.014;2023-04-06T01:08:35;6.55;;;2.13;;
45254;SDS011;30989;52.078;21.014;2023-04-06T01:11:17;6.88;;;2.35;;
45254;SDS011;30989;52.078;21.014;2023-04-06T01:13:43;5.80;;;2.60;;
45254;SDS011;30989;52.078;21.014;2023-04-06T01:16:23;8.00;;;3.13;;
45254;SDS011;30989;52.078;21.014;2023-04-06T01:19:15;7.18;;;3.42;;
45254;SDS011;30989;52.078;21.014;2023-04-06T01:24:29;4.57;;;2.00;;
45254;SDS011;30989;52.078;21.014;2023-04-06T01:27:02;9.60;;;3.13;;
45254;SDS011;30989;52.078;21.014;2023-04-06T01:29:38;7.97;;;2.67;;
45254;SDS011;30989;52.078;21.014;2023-04-06T01:32:07;8.15;;;3.00;;
45254;SDS011;30989;52.078;21.014;2023-04-06T01:34:42;8.88;;;3.38;;
45254;SDS011;30989;52.078;21.014;2023-04-06T01:37:08;7.28;;;3.65;;
45254;SDS011;30989;52.078;21.014;2023-04-06T01:39:34;10.55;;;3.65;;
45254;SDS011;30989;52.078;21.014;2023-04-06T01:42:02;7.15;;;3.42;;
45254;SDS011;30989;52.078;21.014;2023-04-06T01:44:30;13.43;;;3.65;;
45254;SDS011;30989;52.078;21.014;2023-04-06T01:47:05;9.52;;;3.67;;
45254;SDS011;30989;52.078;21.014;2023-04-06T01:49:31;14.25;;;3.42;;
45254;SDS011;30989;52.078;21.014;2023-04-06T01:51:57;10.07;;;3.00;;
45254;SDS011;30989;52.078;21.014;2023-04-06T01:54:22;9.02;;;3.17;;
45254;SDS011;30989;52.078;21.014;2023-04-06T01:56:54;8.32;;;3.63;;
45254;SDS011;30989;52.078;21.014;2023-04-06T01:59:40;8.23;;;2.95;;
45254;SDS011;30989;52.078;21.014;2023-04-06T02:02:13;10.88;;;3.47;;
45254;SDS011;30989;52.078;21.014;2023-04-06T02:04:50;15.07;;;3.30;;
45254;SDS011;30989;52.078;21.014;2023-04-06T02:07:16;7.93;;;3.50;;
45254;SDS011;30989;52.078;21.014;2023-04-06T02:09:41;7.00;;;2.95;;
45254;SDS011;30989;52.078;21.014;2023-04-06T02:12:12;8.95;;;3.17;;
45254;SDS011;30989;52.078;21.014;2023-04-06T02:14:38;7.78;;;3.30;;
45254;SDS011;30989;52.078;21.014;2023-04-06T02:17:03;7.82;;;2.95;;
45254;SDS011;30989;52.078;21.014;2023-04-06T02:19:29;7.63;;;2.67;;
45254;SDS011;30989;52.078;21.014;2023-04-06T02:21:54;5.82;;;2.90;;
45254;SDS011;30989;52.078;21.014;2023-04-06T02:24:21;8.70;;;3.40;;
45254;SDS011;30989;52.078;21.014;2023-04-06T02:26:47;8.30;;;2.95;;
45254;SDS011;30989;52.078;21.014;2023-04-06T02:29:12;9.88;;;2.88;;
45254;SDS011;30989;52.078;21.014;2023-04-06T02:31:38;7.03;;;2.78;;
45254;SDS011;30989;52.078;21.014;2023-04-06T02:34:05;7.32;;;3.13;;
45254;SDS011;30989;52.078;21.014;2023-04-06T02:36:32;9.18;;;2.58;;
45254;SDS011;30989;52.078;21.014;2023-04-06T02:38:58;8.43;;;3.30;;
45254;SDS011;30989;52.078;21.014;2023-04-06T02:41:23;9.25;;;3.10;;
45254;SDS011;30989;52.078;21.014;2023-04-06T02:43:49;8.38;;;2.90;;
45254;SDS011;30989;52.078;21.014;2023-04-06T02:46:34;5.45;;;2.72;;
45254;SDS011;30989;52.078;21.014;2023-04-06T02:49:02;9.25;;;3.63;;
45254;SDS011;30989;52.078;21.014;2023-04-06T02:51:30;7.38;;;2.88;;
45254;SDS011;30989;52.078;21.014;2023-04-06T02:54:06;7.32;;;3.53;;
45254;SDS011;30989;52.078;21.014;2023-04-06T02:56:31;10.23;;;2.97;;
45254;SDS011;30989;52.078;21.014;2023-04-06T02:58:57;7.50;;;2.33;;
45254;SDS011;30989;52.078;21.014;2023-04-06T03:01:26;8.93;;;3.03;;
45254;SDS011;30989;52.078;21.014;2023-04-06T03:03:56;9.63;;;3.15;;
45254;SDS011;30989;52.078;21.014;2023-04-06T03:06:25;5.95;;;2.80;;
45254;SDS011;30989;52.078;21.014;2023-04-06T03:08:55;8.15;;;2.90;;
45254;SDS011;30989;52.078;21.014;2023-04-06T03:11:20;10.38;;;3.17;;
45254;SDS011;30989;52.078;21.014;2023-04-06T03:13:48;7.07;;;2.90;;
45254;SDS011;30989;52.078;21.014;2023-04-06T03:16:13;8.85;;;3.13;;
45254;SDS011;30989;52.078;21.014;2023-04-06T03:18:40;6.65;;;2.85;;
45254;SDS011;30989;52.078;21.014;2023-04-06T03:21:05;8.27;;;2.88;;
45254;SDS011;30989;52.078;21.014;2023-04-06T03:23:41;6.68;;;3.03;;
45254;SDS011;30989;52.078;21.014;2023-04-06T03:26:08;8.88;;;3.70;;
45254;SDS011;30989;52.078;21.014;2023-04-06T03:28:33;10.43;;;3.42;;
45254;SDS011;30989;52.078;21.014;2023-04-06T03:31:02;8.70;;;2.65;;
45254;SDS011;30989;52.078;21.014;2023-04-06T03:34:00;6.63;;;2.40;;
45254;SDS011;30989;52.078;21.014;2023-04-06T03:36:31;5.55;;;2.47;;
45254;SDS011;30989;52.078;21.014;2023-04-06T03:38:57;10.88;;;3.13;;
45254;SDS011;30989;52.078;21.014;2023-04-06T03:41:23;7.82;;;3.03;;
45254;SDS011;30989;52.078;21.014;2023-04-06T03:43:58;14.93;;;3.25;;
45254;SDS011;30989;52.078;21.014;2023-04-06T03:46:24;11.05;;;3.58;;
45254;SDS011;30989;52.078;21.014;2023-04-06T03:48:52;11.65;;;3.92;;
45254;SDS011;30989;52.078;21.014;2023-04-06T03:51:20;17.00;;;3.63;;
45254;SDS011;30989;52.078;21.014;2023-04-06T03:53:46;10.02;;;3.13;;
45254;SDS011;30989;52.078;21.014;2023-04-06T03:56:12;11.60;;;4.22;;
45254;SDS011;30989;52.078;21.014;2023-04-06T03:58:37;9.25;;;4.03;;
45254;SDS011;30989;52.078;21.014;2023-04-06T04:01:03;10.23;;;4.05;;
45254;SDS011;30989;52.078;21.014;2023-04-06T04:03:29;12.48;;;4.35;;
45254;SDS011;30989;52.078;21.014;2023-04-06T04:05:54;7.43;;;3.28;;
45254;SDS011;30989;52.078;21.014;2023-04-06T04:08:21;13.85;;;4.57;;
45254;SDS011;30989;52.078;21.014;2023-04-06T04:10:47;10.25;;;3.60;;
45254;SDS011;30989;52.078;21.014;2023-04-06T04:13:12;12.15;;;4.72;;
45254;SDS011;30989;52.078;21.014;2023-04-06T04:15:39;20.67;;;3.95;;
45254;SDS011;30989;52.078;21.014;2023-04-06T04:18:04;13.23;;;4.63;;
45254;SDS011;30989;52.078;21.014;2023-04-06T04:20:31;11.27;;;4.32;;
45254;SDS011;30989;52.078;21.014;2023-04-06T04:22:57;9.70;;;3.38;;
45254;SDS011;30989;52.078;21.014;2023-04-06T04:25:22;10.00;;;3.67;;
45254;SDS011;30989;52.078;21.014;2023-04-06T04:27:48;8.20;;;3.30;;
45254;SDS011;30989;52.078;21.014;2023-04-06T04:30:16;10.52;;;3.67;;
45254;SDS011;30989;52.078;21.014;2023-04-06T04:32:41;8.88;;;4.20;;
45254;SDS011;30989;52.078;21.014;2023-04-06T04:35:08;10.85;;;3.20;;
45254;SDS011;30989;52.078;21.014;2023-04-06T04:37:38;15.88;;;3.45;;
45254;SDS011;30989;52.078;21.014;2023-04-06T04:40:04;8.15;;;3.38;;
45254;SDS011;30989;52.078;21.014;2023-04-06T04:42:37;7.70;;;3.20;;
45254;SDS011;30989;52.078;21.014;2023-04-06T04:45:05;8.05;;;3.15;;
45254;SDS011;30989;52.078;21.014;2023-04-06T04:47:35;9.23;;;3.35;;
45254;SDS011;30989;52.078;21.014;2023-04-06T04:50:01;21.33;;;4.43;;
45254;SDS011;30989;52.078;21.014;2023-04-06T04:52:28;12.55;;;3.53;;
45254;SDS011;30989;52.078;21.014;2023-04-06T04:55:00;7.82;;;3.25;;
45254;SDS011;30989;52.078;21.014;2023-04-06T04:57:27;13.10;;;4.78;;
45254;SDS011;30989;52.078;21.014;2023-04-06T04:59:53;8.07;;;3.55;;
45254;SDS011;30989;52.078;21.014;2023-04-06T05:02:18;15.35;;;4.20;;
45254;SDS011;30989;52.078;21.014;2023-04-06T05:05:07;9.20;;;3.85;;
45254;SDS011;30989;52.078;21.014;2023-04-06T05:07:33;9.80;;;3.20;;
45254;SDS011;30989;52.078;21.014;2023-04-06T05:09:59;9.55;;;3.00;;
45254;SDS011;30989;52.078;21.014;2023-04-06T05:12:29;13.25;;;4.13;;
45254;SDS011;30989;52.078;21.014;2023-04-06T05:15:03;9.75;;;3.70;;
45254;SDS011;30989;52.078;21.014;2023-04-06T05:17:30;7.20;;;2.95;;
45254;SDS011;30989;52.078;21.014;2023-04-06T05:19:56;11.20;;;4.22;;
45254;SDS011;30989;52.078;21.014;2023-04-06T05:22:23;13.07;;;4.65;;
45254;SDS011;30989;52.078;21.014;2023-04-06T05:24:59;11.70;;;4.65;;
45254;SDS011;30989;52.078;21.014;2023-04-06T05:27:24;8.93;;;3.20;;
45254;SDS011;30989;52.078;21.014;2023-04-06T05:29:51;14.02;;;3.60;;
45254;SDS011;30989;52.078;21.014;2023-04-06T05:32:17;14.30;;;3.53;;
45254;SDS011;30989;52.078;21.014;2023-04-06T05:34:48;12.00;;;3.20;;
45254;SDS011;30989;52.078;21.014;2023-04-06T05:37:17;10.60;;;3.25;;
45254;SDS011;30989;52.078;21.014;2023-04-06T05:39:42;5.90;;;2.65;;
45254;SDS011;30989;52.078;21.014;2023-04-06T05:42:08;7.43;;;3.42;;
45254;SDS011;30989;52.078;21.014;2023-04-06T05:44:48;9.27;;;3.35;;
45254;SDS011;30989;52.078;21.014;2023-04-06T05:47:15;11.73;;;3.33;;
45254;SDS011;30989;52.078;21.014;2023-04-06T05:49:43;10.68;;;2.80;;
45254;SDS011;30989;52.078;21.014;2023-04-06T05:52:14;9.23;;;3.72;;
45254;SDS011;30989;52.078;21.014;2023-04-06T05:54:44;7.43;;;3.17;;
45254;SDS011;30989;52.078;21.014;2023-04-06T05:57:09;8.20;;;2.53;;
45254;SDS011;30989;52.078;21.014;2023-04-06T05:59:35;8.13;;;2.83;;
45254;SDS011;30989;52.078;21.014;2023-04-06T06:02:01;8.90;;;2.90;;
45254;SDS011;30989;52.078;21.014;2023-04-06T06:04:30;6.80;;;2.85;;
45254;SDS011;30989;52.078;21.014;2023-04-06T06:06:56;15.93;;;3.65;;
45254;SDS011;30989;52.078;21.014;2023-04-06T06:09:31;7.68;;;2.70;;
45254;SDS011;30989;52.078;21.014;2023-04-06T06:12:06;14.32;;;3.00;;
45254;SDS011;30989;52.078;21.014;2023-04-06T06:14:33;7.82;;;2.70;;
45254;SDS011;30989;52.078;21.014;2023-04-06T06:16:58;10.73;;;2.90;;
45254;SDS011;30989;52.078;21.014;2023-04-06T06:19:25;7.82;;;2.50;;
45254;SDS011;30989;52.078;21.014;2023-04-06T06:21:54;6.97;;;2.88;;
45254;SDS011;30989;52.078;21.014;2023-04-06T06:24:20;6.93;;;2.30;;
45254;SDS011;30989;52.078;21.014;2023-04-06T06:26:46;5.65;;;2.85;;
45254;SDS011;30989;52.078;21.014;2023-04-06T06:29:15;9.40;;;2.70;;
45254;SDS011;30989;52.078;21.014;2023-04-06T06:31:41;10.15;;;2.40;;
45254;SDS011;30989;52.078;21.014;2023-04-06T06:34:06;10.55;;;2.45;;
45254;SDS011;30989;52.078;21.014;2023-04-06T06:36:34;5.00;;;2.38;;
45254;SDS011;30989;52.078;21.014;2023-04-06T06:39:01;6.40;;;2.63;;
45254;SDS011;30989;52.078;21.014;2023-04-06T06:41:29;7.40;;;3.40;;
45254;SDS011;30989;52.078;21.014;2023-04-06T06:43:54;6.72;;;2.55;;
45254;SDS011;30989;52.078;21.014;2023-04-06T06:46:20;6.03;;;2.55;;
45254;SDS011;30989;52.078;21.014;2023-04-06T06:48:45;12.85;;;3.10;;
45254;SDS011;30989;52.078;21.014;2023-04-06T06:51:11;8.88;;;2.78;;
45254;SDS011;30989;52.078;21.014;2023-04-06T06:53:39;8.75;;;2.28;;
45254;SDS011;30989;52.078;21.014;2023-04-06T06:56:05;7.10;;;2.35;;
45254;SDS011;30989;52.078;21.014;2023-04-06T06:58:31;14.10;;;2.80;;
45254;SDS011;30989;52.078;21.014;2023-04-06T07:00:56;9.48;;;2.78;;
45254;SDS011;30989;52.078;21.014;2023-04-06T07:03:23;8.32;;;2.35;;
45254;SDS011;30989;52.078;21.014;2023-04-06T07:05:49;8.00;;;2.40;;
45254;SDS011;30989;52.078;21.014;2023-04-06T07:08:19;5.60;;;2.55;;
45254;SDS011;30989;52.078;21.014;2023-04-06T07:10:45;6.70;;;2.35;;
45254;SDS011;30989;52.078;21.014;2023-04-06T07:13:13;5.75;;;2.50;;
45254;SDS011;30989;52.078;21.014;2023-04-06T07:15:43;4.07;;;1.80;;
45254;SDS011;30989;52.078;21.014;2023-04-06T07:18:08;9.07;;;1.98;;
45254;SDS011;30989;52.078;21.014;2023-04-06T07:20:34;9.80;;;2.17;;
45254;SDS011;30989;52.078;21.014;2023-04-06T07:23:01;6.20;;;2.03;;
45254;SDS011;30989;52.078;21.014;2023-04-06T07:25:28;8.52;;;2.30;;
45254;SDS011;30989;52.078;21.014;2023-04-06T07:27:54;4.30;;;1.83;;
45254;SDS011;30989;52.078;21.014;2023-04-06T07:30:20;5.93;;;2.05;;
45254;SDS011;30989;52.078;21.014;2023-04-06T07:32:47;4.05;;;1.85;;
45254;SDS011;30989;52.078;21.014;2023-04-06T07:35:14;6.53;;;2.22;;
45254;SDS011;30989;52.078;21.014;2023-04-06T07:37:40;6.45;;;2.15;;
45254;SDS011;30989;52.078;21.014;2023-04-06T07:40:06;4.57;;;2.03;;
45254;SDS011;30989;52.078;21.014;2023-04-06T07:42:33;5.53;;;2.42;;
45254;SDS011;30989;52.078;21.014;2023-04-06T07:44:58;4.88;;;2.17;;
45254;SDS011;30989;52.078;21.014;2023-04-06T07:47:24;10.20;;;1.98;;
45254;SDS011;30989;52.078;21.014;2023-04-06T07:49:50;6.10;;;2.30;;
45254;SDS011;30989;52.078;21.014;2023-04-06T07:52:15;8.18;;;2.58;;
45254;SDS011;30989;52.078;21.014;2023-04-06T07:54:42;7.80;;;2.40;;
45254;SDS011;30989;52.078;21.014;2023-04-06T07:57:08;5.63;;;1.92;;
45254;SDS011;30989;52.078;21.014;2023-04-06T07:59:33;5.90;;;1.85;;
45254;SDS011;30989;52.078;21.014;2023-04-06T08:01:59;6.03;;;1.63;;
45254;SDS011;30989;52.078;21.014;2023-04-06T08:04:24;6.15;;;2.17;;
45254;SDS011;30989;52.078;21.014;2023-04-06T08:06:50;5.13;;;2.55;;
45254;SDS011;30989;52.078;21.014;2023-04-06T08:09:15;5.45;;;2.60;;
45254;SDS011;30989;52.078;21.014;2023-04-06T08:11:41;5.53;;;2.10;;
45254;SDS011;30989;52.078;21.014;2023-04-06T08:14:06;3.42;;;1.83;;
45254;SDS011;30989;52.078;21.014;2023-04-06T08:16:31;3.47;;;1.60;;
45254;SDS011;30989;52.078;21.014;2023-04-06T08:18:57;4.10;;;2.28;;
45254;SDS011;30989;52.078;21.014;2023-04-06T08:21:22;5.82;;;2.30;;
45254;SDS011;30989;52.078;21.014;2023-04-06T08:23:48;5.22;;;2.38;;
45254;SDS011;30989;52.078;21.014;2023-04-06T08:26:13;9.48;;;3.00;;
45254;SDS011;30989;52.078;21.014;2023-04-06T08:28:39;7.90;;;2.50;;
45254;SDS011;30989;52.078;21.014;2023-04-06T08:31:05;4.45;;;1.90;;
45254;SDS011;30989;52.078;21.014;2023-04-06T08:33:30;6.82;;;2.10;;
45254;SDS011;30989;52.078;21.014;2023-04-06T08:35:56;7.47;;;1.92;;
45254;SDS011;30989;52.078;21.014;2023-04-06T08:38:22;4.22;;;2.05;;
45254;SDS011;30989;52.078;21.014;2023-04-06T08:40:47;5.25;;;2.90;;
45254;SDS011;30989;52.078;21.014;2023-04-06T08:43:14;8.52;;;2.55;;
45254;SDS011;30989;52.078;21.014;2023-04-06T08:45:45;4.40;;;1.85;;
45254;SDS011;30989;52.078;21.014;2023-04-06T08:48:11;5.50;;;2.17;;
45254;SDS011;30989;52.078;21.014;2023-04-06T08:50:37;5.10;;;2.20;;
45254;SDS011;30989;52.078;21.014;2023-04-06T08:53:03;5.78;;;2.53;;
45254;SDS011;30989;52.078;21.014;2023-04-06T08:55:31;7.50;;;2.80;;
45254;SDS011;30989;52.078;21.014;2023-04-06T08:57:56;3.88;;;1.95;;
45254;SDS011;30989;52.078;21.014;2023-04-06T09:00:24;4.72;;;2.05;;
45254;SDS011;30989;52.078;21.014;2023-04-06T09:02:51;5.88;;;1.80;;
45254;SDS011;30989;52.078;21.014;2023-04-06T09:05:21;4.07;;;1.92;;
45254;SDS011;30989;52.078;21.014;2023-04-06T09:07:49;7.25;;;3.00;;
45254;SDS011;30989;52.078;21.014;2023-04-06T09:10:15;7.07;;;2.55;;
45254;SDS011;30989;52.078;21.014;2023-04-06T09:12:42;8.43;;;3.05;;
45254;SDS011;30989;52.078;21.014;2023-04-06T09:15:16;13.55;;;3.40;;
45254;SDS011;30989;52.078;21.014;2023-04-06T09:17:44;10.00;;;2.30;;
45254;SDS011;30989;52.078;21.014;2023-04-06T09:20:10;11.63;;;2.65;;
45254;SDS011;30989;52.078;21.014;2023-04-06T09:22:37;10.07;;;2.80;;
45254;SDS011;30989;52.078;21.014;2023-04-06T09:25:07;20.88;;;5.25;;
45254;SDS011;30989;52.078;21.014;2023-04-06T09:27:34;8.43;;;3.60;;
45254;SDS011;30989;52.078;21.014;2023-04-06T09:30:08;10.82;;;3.13;;
45254;SDS011;30989;52.078;21.014;2023-04-06T09:33:11;5.72;;;2.80;;
45254;SDS011;30989;52.078;21.014;2023-04-06T09:35:30;4.73;;;2.87;;
45254;SDS011;30989;52.078;21.014;2023-04-06T09:37:57;11.32;;;3.65;;
45254;SDS011;30989;52.078;21.014;2023-04-06T09:40:23;5.75;;;2.75;;
45254;SDS011;30989;52.078;21.014;2023-04-06T09:42:49;7.05;;;2.92;;
45254;SDS011;30989;52.078;21.014;2023-04-06T09:45:17;5.97;;;2.75;;
45254;SDS011;30989;52.078;21.014;2023-04-06T09:47:43;8.80;;;3.80;;
45254;SDS011;30989;52.078;21.014;2023-04-06T09:50:10;6.85;;;2.33;;
45254;SDS011;30989;52.078;21.014;2023-04-06T09:52:43;16.38;;;4.20;;
45254;SDS011;30989;52.078;21.014;2023-04-06T09:55:16;11.93;;;3.38;;
45254;SDS011;30989;52.078;21.014;2023-04-06T10:00:34;15.32;;;3.53;;
45254;SDS011;30989;52.078;21.014;2023-04-06T10:08:26;7.72;;;3.28;;
45254;SDS011;30989;52.078;21.014;2023-04-06T10:10:56;9.68;;;4.20;;
45254;SDS011;30989;52.078;21.014;2023-04-06T10:13:23;11.10;;;3.35;;
45254;SDS011;30989;52.078;21.014;2023-04-06T10:15:49;8.23;;;2.75;;
45254;SDS011;30989;52.078;21.014;2023-04-06T10:18:16;7.07;;;3.10;;
45254;SDS011;30989;52.078;21.014;2023-04-06T10:25:52;9.30;;;3.55;;
45254;SDS011;30989;52.078;21.014;2023-04-06T10:28:19;9.10;;;3.30;;
45254;SDS011;30989;52.078;21.014;2023-04-06T10:30:44;9.57;;;3.45;;
45254;SDS011;30989;52.078;21.014;2023-04-06T10:35:44;10.88;;;3.25;;
45254;SDS011;30989;52.078;21.014;2023-04-06T10:38:09;6.55;;;3.33;;
45254;SDS011;30989;52.078;21.014;2023-04-06T10:40:39;13.98;;;3.50;;
45254;SDS011;30989;52.078;21.014;2023-04-06T10:43:09;15.35;;;4.50;;
45254;SDS011;30989;52.078;21.014;2023-04-06T10:45:43;17.40;;;4.28;;
45254;SDS011;30989;52.078;21.014;2023-04-06T10:48:12;10.20;;;3.65;;
45254;SDS011;30989;52.078;21.014;2023-04-06T10:50:40;9.85;;;4.05;;
45254;SDS011;30989;52.078;21.014;2023-04-06T10:53:07;9.40;;;3.55;;
45254;SDS011;30989;52.078;21.014;2023-04-06T10:55:33;8.93;;;3.65;;
45254;SDS011;30989;52.078;21.014;2023-04-06T10:57:59;9.90;;;3.50;;
45254;SDS011;30989;52.078;21.014;2023-04-06T11:00:25;11.93;;;4.07;;
45254;SDS011;30989;52.078;21.014;2023-04-06T11:02:51;9.10;;;3.95;;
45254;SDS011;30989;52.078;21.014;2023-04-06T11:05:17;9.80;;;2.92;;
45254;SDS011;30989;52.078;21.014;2023-04-06T11:07:43;15.25;;;4.47;;
45254;SDS011;30989;52.078;21.014;2023-04-06T11:10:09;15.00;;;4.30;;
45254;SDS011;30989;52.078;21.014;2023-04-06T11:12:35;8.65;;;3.42;;
45254;SDS011;30989;52.078;21.014;2023-04-06T11:15:01;8.13;;;4.13;;
45254;SDS011;30989;52.078;21.014;2023-04-06T11:17:31;12.63;;;3.83;;
45254;SDS011;30989;52.078;21.014;2023-04-06T11:19:58;14.70;;;4.10;;
45254;SDS011;30989;52.078;21.014;2023-04-06T11:22:24;9.05;;;3.85;;
45254;SDS011;30989;52.078;21.014;2023-04-06T11:24:50;11.75;;;3.40;;
45254;SDS011;30989;52.078;21.014;2023-04-06T11:27:17;7.20;;;3.22;;
45254;SDS011;30989;52.078;21.014;2023-04-06T11:29:44;11.18;;;3.78;;
45254;SDS011;30989;52.078;21.014;2023-04-06T11:32:20;10.60;;;4.43;;
45254;SDS011;30989;52.078;21.014;2023-04-06T11:34:46;8.23;;;3.20;;
45254;SDS011;30989;52.078;21.014;2023-04-06T11:37:13;9.00;;;3.10;;
45254;SDS011;30989;52.078;21.014;2023-04-06T11:39:49;8.52;;;3.47;;
45254;SDS011;30989;52.078;21.014;2023-04-06T11:44:53;8.75;;;3.47;;
45254;SDS011;30989;52.078;21.014;2023-04-06T11:47:20;7.55;;;3.78;;
45254;SDS011;30989;52.078;21.014;2023-04-06T11:49:53;7.35;;;3.53;;
45254;SDS011;30989;52.078;21.014;2023-04-06T11:54:49;7.40;;;3.78;;
45254;SDS011;30989;52.078;21.014;2023-04-06T11:57:16;12.68;;;3.95;;
45254;SDS011;30989;52.078;21.014;2023-04-06T11:59:43;5.97;;;3.17;;
45254;SDS011;30989;52.078;21.014;2023-04-06T12:02:09;9.73;;;3.55;;
45254;SDS011;30989;52.078;21.014;2023-04-06T12:04:34;6.97;;;3.45;;
45254;SDS011;30989;52.078;21.014;2023-04-06T12:07:00;11.02;;;3.85;;
45254;SDS011;30989;52.078;21.014;2023-04-06T12:09:26;8.57;;;3.15;;
45254;SDS011;30989;52.078;21.014;2023-04-06T12:11:52;8.35;;;4.30;;
45254;SDS011;30989;52.078;21.014;2023-04-06T12:14:17;10.48;;;3.80;;
45254;SDS011;30989;52.078;21.014;2023-04-06T12:16:43;7.68;;;4.32;;
45254;SDS011;30989;52.078;21.014;2023-04-06T12:19:09;8.23;;;3.70;;
45254;SDS011;30989;52.078;21.014;2023-04-06T12:21:34;9.88;;;4.00;;
45254;SDS011;30989;52.078;21.014;2023-04-06T12:24:02;9.68;;;3.97;;
45254;SDS011;30989;52.078;21.014;2023-04-06T12:26:29;11.40;;;4.30;;
45254;SDS011;30989;52.078;21.014;2023-04-06T12:28:55;12.65;;;4.75;;
45254;SDS011;30989;52.078;21.014;2023-04-06T12:31:21;9.20;;;3.55;;
45254;SDS011;30989;52.078;21.014;2023-04-06T12:33:50;11.90;;;4.80;;
45254;SDS011;30989;52.078;21.014;2023-04-06T12:36:16;7.20;;;3.35;;
45254;SDS011;30989;52.078;21.014;2023-04-06T12:38:49;15.07;;;4.22;;
45254;SDS011;30989;52.078;21.014;2023-04-06T12:41:16;9.25;;;3.53;;
45254;SDS011;30989;52.078;21.014;2023-04-06T12:43:42;6.88;;;3.85;;
45254;SDS011;30989;52.078;21.014;2023-04-06T12:46:09;9.32;;;4.00;;
45254;SDS011;30989;52.078;21.014;2023-04-06T12:48:35;9.32;;;3.63;;
45254;SDS011;30989;52.078;21.014;2023-04-06T12:51:02;13.25;;;4.68;;
45254;SDS011;30989;52.078;21.014;2023-04-06T12:53:31;6.97;;;4.10;;
45254;SDS011;30989;52.078;21.014;2023-04-06T12:56:01;13.70;;;4.47;;
45254;SDS011;30989;52.078;21.014;2023-04-06T12:58:27;9.85;;;4.03;;
45254;SDS011;30989;52.078;21.014;2023-04-06T13:00:54;6.15;;;3.85;;
45254;SDS011;30989;52.078;21.014;2023-04-06T13:03:21;12.10;;;4.20;;
45254;SDS011;30989;52.078;21.014;2023-04-06T13:05:48;8.80;;;4.10;;
45254;SDS011;30989;52.078;21.014;2023-04-06T13:08:18;8.10;;;4.22;;
45254;SDS011;30989;52.078;21.014;2023-04-06T13:10:48;12.40;;;4.78;;
45254;SDS011;30989;52.078;21.014;2023-04-06T13:13:22;12.40;;;4.50;;
45254;SDS011;30989;52.078;21.014;2023-04-06T13:15:49;11.18;;;4.32;;
45254;SDS011;30989;52.078;21.014;2023-04-06T13:18:15;12.13;;;3.80;;
45254;SDS011;30989;52.078;21.014;2023-04-06T13:20:41;8.57;;;3.50;;
45254;SDS011;30989;52.078;21.014;2023-04-06T13:23:07;10.85;;;4.72;;
45254;SDS011;30989;52.078;21.014;2023-04-06T13:25:32;11.38;;;4.63;;
45254;SDS011;30989;52.078;21.014;2023-04-06T13:27:58;9.23;;;4.18;;
45254;SDS011;30989;52.078;21.014;2023-04-06T13:30:24;9.95;;;3.85;;
45254;SDS011;30989;52.078;21.014;2023-04-06T13:32:49;10.00;;;4.05;;
45254;SDS011;30989;52.078;21.014;2023-04-06T13:35:15;6.93;;;3.47;;
45254;SDS011;30989;52.078;21.014;2023-04-06T13:37:41;8.68;;;4.00;;
45254;SDS011;30989;52.078;21.014;2023-04-06T13:40:07;8.45;;;4.25;;
45254;SDS011;30989;52.078;21.014;2023-04-06T13:42:33;9.13;;;3.67;;
45254;SDS011;30989;52.078;21.014;2023-04-06T13:45:00;7.85;;;3.35;;
45254;SDS011;30989;52.078;21.014;2023-04-06T13:47:26;6.47;;;3.25;;
45254;SDS011;30989;52.078;21.014;2023-04-06T13:49:52;6.40;;;3.55;;
45254;SDS011;30989;52.078;21.014;2023-04-06T13:52:19;6.10;;;3.38;;
45254;SDS011;30989;52.078;21.014;2023-04-06T13:54:44;8.95;;;4.35;;
45254;SDS011;30989;52.078;21.014;2023-04-06T13:57:11;6.45;;;3.83;;
45254;SDS011;30989;52.078;21.014;2023-04-06T13:59:37;6.47;;;3.17;;
45254;SDS011;30989;52.078;21.014;2023-04-06T14:02:03;10.48;;;4.60;;
45254;SDS011;30989;52.078;21.014;2023-04-06T14:04:30;8.98;;;4.15;;
45254;SDS011;30989;52.078;21.014;2023-04-06T14:06:58;8.75;;;4.10;;
45254;SDS011;30989;52.078;21.014;2023-04-06T14:09:24;10.50;;;4.47;;
45254;SDS011;30989;52.078;21.014;2023-04-06T14:11:50;10.48;;;4.05;;
45254;SDS011;30989;52.078;21.014;2023-04-06T14:14:16;7.40;;;3.60;;
45254;SDS011;30989;52.078;21.014;2023-04-06T14:16:42;11.05;;;4.47;;
45254;SDS011;30989;52.078;21.014;2023-04-06T14:19:12;9.13;;;3.83;;
45254;SDS011;30989;52.078;21.014;2023-04-06T14:21:39;10.93;;;4.90;;
45254;SDS011;30989;52.078;21.014;2023-04-06T14:24:08;10.40;;;3.78;;
45254;SDS011;30989;52.078;21.014;2023-04-06T14:26:34;8.65;;;3.78;;
45254;SDS011;30989;52.078;21.014;2023-04-06T14:29:00;7.15;;;3.38;;
45254;SDS011;30989;52.078;21.014;2023-04-06T14:31:26;8.73;;;3.80;;
45254;SDS011;30989;52.078;21.014;2023-04-06T14:33:52;6.53;;;3.03;;
45254;SDS011;30989;52.078;21.014;2023-04-06T14:36:17;6.05;;;3.40;;
45254;SDS011;30989;52.078;21.014;2023-04-06T14:38:43;9.43;;;3.80;;
45254;SDS011;30989;52.078;21.014;2023-04-06T14:41:14;5.85;;;3.00;;
45254;SDS011;30989;52.078;21.014;2023-04-06T14:43:42;8.40;;;3.13;;
45254;SDS011;30989;52.078;21.014;2023-04-06T14:46:07;9.68;;;3.85;;
45254;SDS011;30989;52.078;21.014;2023-04-06T14:48:34;6.68;;;3.42;;
45254;SDS011;30989;52.078;21.014;2023-04-06T14:51:00;9.38;;;3.95;;
45254;SDS011;30989;52.078;21.014;2023-04-06T14:53:26;15.05;;;4.28;;
45254;SDS011;30989;52.078;21.014;2023-04-06T14:55:52;8.77;;;4.85;;